createdAt,value
2022-10-21T00:00:20.668Z,12.42
2022-10-21T00:01:20.691Z,12.39
2022-10-21T00:02:20.644Z,12.45
2022-10-21T00:03:20.642Z,12.38
2022-10-21T00:04:20.633Z,12.40
2022-10-21T00:05:20.622Z,12.38
2022-10-21T00:06:20.658Z,12.30
2022-10-21T00:07:20.613Z,12.43
2022-10-21T00:08:20.603Z,12.46
2022-10-21T00:09:20.593Z,12.35
2022-10-21T00:10:20.615Z,12.42
2022-10-21T00:11:20.617Z,12.33
2022-10-21T00:12:20.568Z,12.51
2022-10-21T00:13:20.574Z,12.38
2022-10-21T00:14:20.554Z,12.35
2022-10-21T00:15:20.549Z,12.50
2022-10-21T00:16:20.544Z,12.53
2022-10-21T00:17:20.556Z,12.53
2022-10-21T00:18:20.529Z,12.45
2022-10-21T00:19:20.514Z,12.43
2022-10-21T00:20:20.523Z,12.46
2022-10-21T00:21:21.502Z,12.39
2022-10-21T00:22:20.523Z,12.42
2022-10-21T00:23:23.218Z,12.40
2022-10-21T00:24:21.472Z,12.40
2022-10-21T00:25:20.462Z,12.39
2022-10-21T00:26:20.463Z,12.38
2022-10-21T00:27:20.477Z,12.39
2022-10-21T00:28:20.436Z,12.43
2022-10-21T00:30:20.426Z,12.46
2022-10-21T00:31:20.411Z,12.32
2022-10-21T00:32:20.438Z,12.45
2022-10-21T00:33:20.403Z,12.51
2022-10-21T00:34:20.397Z,12.51
2022-10-21T00:35:20.380Z,12.51
2022-10-21T00:36:20.381Z,12.45
2022-10-21T00:37:20.391Z,12.33
2022-10-21T00:39:20.360Z,12.36
2022-10-21T00:40:20.332Z,12.32
2022-10-21T00:41:21.337Z,12.39
2022-10-21T00:42:20.356Z,12.27
2022-10-21T00:43:20.340Z,12.33
2022-10-21T00:44:20.296Z,12.27
2022-10-21T00:45:21.306Z,12.27
2022-10-21T00:46:20.290Z,12.35
2022-10-21T00:47:20.313Z,12.27
2022-10-21T00:48:20.267Z,12.33
2022-10-21T00:49:20.261Z,12.38
2022-10-21T00:50:20.253Z,12.46
2022-10-21T00:51:20.247Z,12.38
2022-10-21T00:52:20.268Z,12.43
2022-10-21T00:53:20.233Z,12.42
2022-10-21T00:54:20.226Z,12.28
2022-10-21T00:55:20.222Z,12.28
2022-10-21T00:56:20.207Z,12.27
2022-10-21T00:57:20.231Z,12.25
2022-10-21T00:58:20.187Z,12.32
2022-10-21T00:59:20.183Z,12.25
2022-10-21T01:00:20.167Z,12.27
2022-10-21T01:01:21.713Z,12.38
2022-10-21T01:02:20.195Z,12.36
2022-10-21T01:03:20.154Z,12.27
2022-10-21T01:04:20.145Z,12.40
2022-10-21T01:05:20.135Z,12.35
2022-10-21T01:06:20.127Z,12.40
2022-10-21T01:07:20.147Z,12.30
2022-10-21T01:08:20.106Z,12.38
2022-10-21T01:09:20.107Z,12.35
2022-10-21T01:10:20.089Z,12.38
2022-10-21T01:11:20.084Z,12.33
2022-10-21T01:12:20.104Z,12.33
2022-10-21T01:13:20.075Z,12.33
2022-10-21T01:14:20.062Z,12.27
2022-10-21T01:15:20.056Z,12.32
2022-10-21T01:16:20.060Z,12.35
2022-10-21T01:17:40.218Z,12.30
2022-10-21T01:18:22.024Z,12.30
2022-10-21T01:19:20.028Z,12.35
2022-10-21T01:20:20.015Z,12.35
2022-10-21T01:21:20.017Z,12.27
2022-10-21T01:22:20.029Z,12.36
2022-10-21T01:23:19.985Z,12.33
2022-10-21T01:24:19.983Z,12.38
2022-10-21T01:25:19.978Z,12.39
2022-10-21T01:26:19.968Z,12.42
2022-10-21T01:27:19.984Z,12.33
2022-10-21T01:28:19.944Z,12.38
2022-10-21T01:29:19.945Z,12.36
2022-10-21T01:30:19.926Z,12.36
2022-10-21T01:31:19.916Z,12.46
2022-10-21T01:32:19.937Z,12.36
2022-10-21T01:33:19.907Z,12.39
2022-10-21T01:34:19.897Z,12.36
2022-10-21T01:35:19.884Z,12.40
2022-10-21T01:36:19.887Z,12.47
2022-10-21T01:37:19.897Z,12.36
2022-10-21T01:38:19.867Z,12.50
2022-10-21T01:39:19.856Z,12.47
2022-10-21T01:40:19.847Z,12.40
2022-10-21T01:41:19.836Z,12.43
2022-10-21T01:42:19.852Z,12.51
2022-10-21T01:43:19.818Z,12.51
2022-10-21T01:44:19.831Z,12.51
2022-10-21T01:45:19.799Z,12.45
2022-10-21T01:46:19.790Z,12.46
2022-10-21T01:47:19.810Z,12.50
2022-10-21T01:48:19.776Z,12.55
2022-10-21T01:49:19.771Z,12.50
2022-10-21T01:50:19.763Z,12.51
2022-10-21T01:51:19.776Z,12.45
2022-10-21T01:52:19.782Z,12.51
2022-10-21T01:53:19.740Z,12.53
2022-10-21T01:54:19.718Z,12.50
2022-10-21T01:55:19.720Z,12.36
2022-10-21T01:56:19.707Z,12.51
2022-10-21T01:57:19.736Z,12.50
2022-10-21T01:58:19.697Z,12.46
2022-10-21T01:59:19.678Z,12.45
2022-10-21T02:00:19.744Z,12.43
2022-10-21T02:01:19.723Z,12.47
2022-10-21T02:02:19.694Z,12.40
2022-10-21T02:03:19.671Z,12.43
2022-10-21T02:04:19.643Z,12.51
2022-10-21T02:05:19.640Z,12.51
2022-10-21T02:06:19.651Z,12.50
2022-10-21T02:07:19.653Z,12.54
2022-10-21T02:08:19.612Z,12.57
2022-10-21T02:09:19.652Z,12.51
2022-10-21T02:10:19.599Z,12.55
2022-10-21T02:11:19.587Z,12.54
2022-10-21T02:12:19.594Z,12.54
2022-10-21T02:13:19.606Z,12.55
2022-10-21T02:14:19.566Z,12.55
2022-10-21T02:15:19.559Z,12.54
2022-10-21T02:16:19.552Z,12.63
2022-10-21T02:17:19.577Z,12.58
2022-10-21T02:18:19.559Z,12.68
2022-10-21T02:19:19.624Z,12.64
2022-10-21T02:20:19.520Z,12.65
2022-10-21T02:21:19.514Z,12.64
2022-10-21T02:22:19.498Z,12.64
2022-10-21T02:23:19.521Z,12.58
2022-10-21T02:24:19.481Z,12.68
2022-10-21T02:25:19.473Z,12.69
2022-10-21T02:26:19.472Z,12.72
2022-10-21T02:27:19.458Z,12.64
2022-10-21T02:28:19.492Z,12.75
2022-10-21T02:29:19.446Z,12.64
2022-10-21T02:30:19.440Z,12.68
2022-10-21T02:31:19.429Z,12.78
2022-10-21T02:32:19.447Z,12.72
2022-10-21T02:33:19.409Z,12.76
2022-10-21T02:34:19.405Z,12.79
2022-10-21T02:35:19.397Z,12.73
2022-10-21T02:36:19.388Z,12.87
2022-10-21T02:37:19.399Z,12.75
2022-10-21T02:38:19.366Z,12.80
2022-10-21T02:39:19.362Z,12.78
2022-10-21T02:40:19.351Z,12.93
2022-10-21T02:41:19.340Z,12.79
2022-10-21T02:42:19.373Z,12.87
2022-10-21T02:43:19.345Z,12.94
2022-10-21T02:44:19.323Z,12.85
2022-10-21T02:45:19.307Z,12.93
2022-10-21T02:46:19.297Z,12.98
2022-10-21T02:47:19.319Z,12.96
2022-10-21T02:48:19.286Z,13.08
2022-10-21T02:49:19.278Z,13.09
2022-10-21T02:50:19.295Z,13.08
2022-10-21T02:51:19.338Z,13.13
2022-10-21T02:52:19.249Z,13.15
2022-10-21T02:53:19.235Z,13.08
2022-10-21T02:54:19.226Z,13.06
2022-10-21T02:55:19.250Z,13.06
2022-10-21T02:56:19.261Z,12.94
2022-10-21T02:57:19.208Z,12.96
2022-10-21T02:58:19.195Z,12.90
2022-10-21T02:59:19.188Z,12.88
2022-10-21T03:00:19.254Z,12.90
2022-10-21T03:01:19.251Z,12.85
2022-10-21T03:02:19.163Z,12.73
2022-10-21T03:03:19.154Z,12.60
2022-10-21T03:04:19.143Z,12.60
2022-10-21T03:05:19.213Z,12.54
2022-10-21T03:06:19.133Z,12.58
2022-10-21T03:07:19.117Z,12.50
2022-10-21T03:08:19.118Z,12.58
2022-10-21T03:09:19.159Z,12.53
2022-10-21T03:10:19.126Z,12.50
2022-10-21T03:11:19.091Z,12.50
2022-10-21T03:12:19.079Z,12.43
2022-10-21T03:13:19.067Z,12.38
2022-10-21T03:14:19.082Z,12.35
2022-10-21T03:15:19.083Z,12.32
2022-10-21T03:17:22.861Z,12.36
2022-10-21T03:18:20.028Z,12.30
2022-10-21T03:19:19.022Z,12.35
2022-10-21T03:20:19.032Z,12.32
2022-10-21T03:21:19.994Z,12.40
2022-10-21T03:22:19.002Z,12.43
2022-10-21T03:23:19.085Z,12.46
2022-10-21T03:24:27.948Z,12.51
2022-10-21T03:25:21.000Z,12.50
2022-10-21T03:26:18.981Z,12.47
2022-10-21T03:27:18.980Z,12.60
2022-10-21T03:28:18.938Z,12.53
2022-10-21T03:29:18.958Z,12.58
2022-10-21T03:30:18.953Z,12.53
2022-10-21T03:31:18.920Z,12.54
2022-10-21T03:32:18.918Z,12.47
2022-10-21T03:33:18.903Z,12.55
2022-10-21T03:34:18.898Z,12.57
2022-10-21T03:35:18.912Z,12.60
2022-10-21T03:36:18.873Z,12.54
2022-10-21T03:37:18.864Z,12.54
2022-10-21T03:38:18.866Z,12.57
2022-10-21T03:39:18.851Z,12.71
2022-10-21T03:40:18.871Z,12.60
2022-10-21T03:41:18.836Z,12.72
2022-10-21T03:42:18.834Z,12.82
2022-10-21T03:43:18.820Z,12.79
2022-10-21T03:44:18.807Z,12.83
2022-10-21T03:45:18.827Z,12.79
2022-10-21T03:46:18.826Z,12.80
2022-10-21T03:47:18.780Z,12.80
2022-10-21T03:48:18.771Z,12.79
2022-10-21T03:49:21.364Z,12.80
2022-10-21T03:50:23.677Z,12.87
2022-10-21T03:51:20.750Z,12.90
2022-10-21T03:52:18.737Z,12.80
2022-10-21T03:53:41.418Z,12.83
2022-10-21T03:54:20.724Z,12.83
2022-10-21T03:55:18.750Z,12.82
2022-10-21T03:56:18.739Z,12.85
2022-10-21T03:57:18.702Z,12.91
2022-10-21T03:58:18.719Z,12.88
2022-10-21T03:59:18.690Z,12.96
2022-10-21T04:00:18.673Z,12.94
2022-10-21T04:01:18.745Z,12.90
2022-10-21T04:02:18.656Z,12.88
2022-10-21T04:03:18.648Z,12.88
2022-10-21T04:04:18.644Z,12.88
2022-10-21T04:05:18.633Z,12.97
2022-10-21T04:06:18.657Z,12.93
2022-10-21T04:07:18.622Z,12.91
2022-10-21T04:08:18.610Z,12.83
2022-10-21T04:09:18.712Z,12.87
2022-10-21T04:10:18.592Z,12.94
2022-10-21T04:11:18.616Z,12.90
2022-10-21T04:12:18.575Z,12.97
2022-10-21T04:13:18.571Z,12.96
2022-10-21T04:14:18.553Z,12.97
2022-10-21T04:15:18.553Z,12.94
2022-10-21T04:16:18.577Z,13.00
2022-10-21T04:17:18.530Z,13.00
2022-10-21T04:18:18.513Z,12.90
2022-10-21T04:19:19.528Z,12.97
2022-10-21T04:20:18.517Z,13.01
2022-10-21T04:21:18.564Z,13.00
2022-10-21T04:22:18.490Z,12.94
2022-10-21T04:23:18.485Z,12.98
2022-10-21T04:24:18.476Z,12.93
2022-10-21T04:25:18.468Z,12.94
2022-10-21T04:26:18.487Z,12.88
2022-10-21T04:27:18.452Z,12.87
2022-10-21T04:28:18.445Z,12.83
2022-10-21T04:29:18.433Z,12.87
2022-10-21T04:30:18.426Z,12.90
2022-10-21T04:31:18.447Z,12.88
2022-10-21T04:32:18.419Z,12.90
2022-10-21T04:33:18.417Z,12.93
2022-10-21T04:34:18.395Z,12.91
2022-10-21T04:35:18.400Z,12.83
2022-10-21T04:36:18.408Z,12.94
2022-10-21T04:37:18.375Z,12.90
2022-10-21T04:38:18.357Z,12.87
2022-10-21T04:39:18.456Z,12.82
2022-10-21T04:40:18.347Z,12.88
2022-10-21T04:41:18.359Z,12.85
2022-10-21T04:42:19.351Z,12.82
2022-10-21T04:43:18.316Z,12.79
2022-10-21T04:44:18.316Z,12.76
2022-10-21T04:45:18.300Z,12.61
2022-10-21T04:46:18.318Z,12.71
2022-10-21T04:47:18.291Z,12.71
2022-10-21T04:48:18.271Z,12.64
2022-10-21T04:49:18.264Z,12.54
2022-10-21T04:50:18.258Z,12.55
2022-10-21T04:51:18.398Z,12.54
2022-10-21T04:52:18.247Z,12.61
2022-10-21T04:53:18.239Z,12.46
2022-10-21T04:54:18.236Z,12.47
2022-10-21T04:55:18.223Z,12.45
2022-10-21T04:56:18.242Z,12.33
2022-10-21T04:57:18.207Z,12.35
2022-10-21T04:58:20.957Z,12.32
2022-10-21T04:59:19.182Z,12.25
2022-10-21T05:00:18.173Z,12.24
2022-10-21T05:01:18.388Z,12.21
2022-10-21T05:02:20.516Z,12.15
2022-10-21T05:03:18.152Z,12.15
2022-10-21T05:04:18.184Z,12.13
2022-10-21T05:05:18.132Z,12.09
2022-10-21T05:06:18.158Z,12.09
2022-10-21T05:07:18.120Z,12.02
2022-10-21T05:08:18.109Z,12.02
2022-10-21T05:09:18.131Z,12.03
2022-10-21T05:10:18.096Z,12.03
2022-10-21T05:11:18.117Z,12.05
2022-10-21T05:12:18.073Z,12.10
2022-10-21T05:13:18.072Z,12.05
2022-10-21T05:14:21.740Z,11.95
2022-10-21T05:15:18.051Z,12.02
2022-10-21T05:16:18.076Z,11.97
2022-10-21T05:17:18.038Z,12.05
2022-10-21T05:18:18.035Z,11.97
2022-10-21T05:19:18.022Z,12.14
2022-10-21T05:20:18.005Z,12.17
2022-10-21T05:21:18.029Z,12.15
2022-10-21T05:22:17.996Z,12.21
2022-10-21T05:23:17.993Z,12.27
2022-10-21T05:24:17.975Z,12.28
2022-10-21T05:25:17.964Z,12.35
2022-10-21T05:26:17.987Z,12.32
2022-10-21T05:27:17.950Z,12.32
2022-10-21T05:28:17.939Z,12.42
2022-10-21T05:29:17.960Z,12.46
2022-10-21T05:30:17.943Z,12.47
2022-10-21T05:31:17.939Z,12.45
2022-10-21T05:32:17.905Z,12.51
2022-10-21T05:33:17.898Z,12.53
2022-10-21T05:34:17.887Z,12.55
2022-10-21T05:35:17.880Z,12.53
2022-10-21T05:36:20.530Z,12.57
2022-10-21T05:37:18.851Z,12.50
2022-10-21T05:38:17.854Z,12.51
2022-10-21T05:39:17.840Z,12.40
2022-10-21T05:40:17.836Z,12.47
2022-10-21T05:41:17.854Z,12.28
2022-10-21T05:42:17.814Z,12.38
2022-10-21T05:43:17.813Z,12.35
2022-10-21T05:44:17.794Z,12.39
2022-10-21T05:45:17.795Z,12.28
2022-10-21T05:46:17.819Z,12.36
2022-10-21T05:47:17.776Z,12.27
2022-10-21T05:48:18.046Z,12.28
2022-10-21T05:49:17.768Z,12.30
2022-10-21T05:50:17.756Z,12.18
2022-10-21T05:51:17.774Z,12.20
2022-10-21T05:52:17.736Z,12.14
2022-10-21T05:53:17.735Z,12.24
2022-10-21T05:54:17.718Z,12.14
2022-10-21T05:55:17.714Z,12.13
2022-10-21T05:56:17.733Z,12.09
2022-10-21T05:57:17.697Z,12.20
2022-10-21T05:58:17.694Z,12.22
2022-10-21T05:59:17.681Z,12.09
2022-10-21T06:00:17.666Z,12.09
2022-10-21T06:01:17.767Z,12.14
2022-10-21T06:02:17.656Z,12.18
2022-10-21T06:03:17.642Z,12.00
2022-10-21T06:04:17.699Z,12.13
2022-10-21T06:05:17.624Z,12.03
2022-10-21T06:06:17.647Z,12.09
2022-10-21T06:07:17.613Z,12.10
2022-10-21T06:08:17.595Z,12.13
2022-10-21T06:09:17.663Z,12.10
2022-10-21T06:10:17.587Z,12.13
2022-10-21T06:11:17.606Z,12.07
2022-10-21T06:12:18.576Z,12.09
2022-10-21T06:13:17.569Z,12.13
2022-10-21T06:14:17.552Z,12.05
2022-10-21T06:15:17.553Z,12.09
2022-10-21T06:16:17.543Z,12.09
2022-10-21T06:17:17.554Z,12.17
2022-10-21T06:18:17.524Z,12.09
2022-10-21T06:19:17.515Z,12.02
2022-10-21T06:20:17.506Z,12.09
2022-10-21T06:21:17.512Z,12.09
2022-10-21T06:22:17.519Z,12.10
2022-10-21T06:23:17.488Z,12.02
2022-10-21T06:24:17.537Z,12.07
2022-10-21T06:26:18.453Z,12.03
2022-10-21T06:27:17.481Z,11.90
2022-10-21T06:28:17.440Z,11.87
2022-10-21T06:29:17.436Z,11.87
2022-10-21T06:30:17.426Z,11.88
2022-10-21T06:31:17.416Z,11.87
2022-10-21T06:32:17.433Z,11.87
2022-10-21T06:33:17.400Z,11.97
2022-10-21T06:35:17.381Z,11.87
2022-10-21T06:36:17.368Z,11.90
2022-10-21T06:37:17.394Z,11.87
2022-10-21T06:38:17.354Z,11.95
2022-10-21T06:39:17.345Z,11.91
2022-10-21T06:40:17.337Z,11.87
2022-10-21T06:41:17.326Z,11.87
2022-10-21T06:42:17.352Z,11.90
2022-10-21T06:43:17.350Z,11.95
2022-10-21T06:44:17.308Z,11.96
2022-10-21T06:45:17.309Z,11.99
2022-10-21T06:46:17.288Z,11.95
2022-10-21T06:47:17.321Z,11.86
2022-10-21T06:48:17.273Z,12.03
2022-10-21T06:49:17.267Z,11.99
2022-10-21T06:50:17.263Z,12.05
2022-10-21T06:51:17.255Z,12.03
2022-10-21T06:52:17.359Z,12.20
2022-10-21T06:53:17.232Z,12.06
2022-10-21T06:54:17.226Z,12.07
2022-10-21T06:55:17.219Z,12.06
2022-10-21T06:56:17.206Z,12.03
2022-10-21T06:57:17.233Z,12.14
2022-10-21T06:58:17.196Z,12.13
2022-10-21T06:59:17.209Z,12.02
2022-10-21T07:00:17.217Z,12.02
2022-10-21T07:01:27.991Z,12.02
2022-10-21T07:02:18.186Z,12.09
2022-10-21T07:03:17.143Z,12.14
2022-10-21T07:04:17.146Z,12.13
2022-10-21T07:05:17.132Z,12.07
2022-10-21T07:06:17.130Z,12.14
2022-10-21T07:07:17.140Z,12.15
2022-10-21T07:08:19.794Z,12.22
2022-10-21T07:09:18.154Z,12.17
2022-10-21T07:10:17.087Z,12.14
2022-10-21T07:11:17.081Z,12.02
2022-10-21T07:12:17.107Z,12.14
2022-10-21T07:13:17.065Z,12.18
2022-10-21T07:14:17.059Z,12.27
2022-10-21T07:15:17.051Z,12.32
2022-10-21T07:16:17.039Z,12.27
2022-10-21T07:17:17.063Z,12.42
2022-10-21T07:18:17.020Z,12.38
2022-10-21T07:19:17.006Z,12.39
2022-10-21T07:20:17.003Z,12.38
2022-10-21T07:21:17.029Z,12.47
2022-10-21T07:22:16.982Z,12.50
2022-10-21T07:23:16.978Z,12.53
2022-10-21T07:24:22.163Z,12.60
2022-10-21T07:25:17.964Z,12.65
2022-10-21T07:26:16.985Z,12.63
2022-10-21T07:27:16.945Z,12.58
2022-10-21T07:28:16.936Z,12.54
2022-10-21T07:29:16.931Z,12.57
2022-10-21T07:30:16.921Z,12.65
2022-10-21T07:31:16.938Z,12.53
2022-10-21T07:32:16.910Z,12.64
2022-10-21T07:33:16.898Z,12.53
2022-10-21T07:34:16.886Z,12.78
2022-10-21T07:35:16.879Z,12.69
2022-10-21T07:36:16.902Z,12.79
2022-10-21T07:37:16.858Z,12.87
2022-10-21T07:38:18.817Z,12.83
2022-10-21T07:39:16.849Z,12.96
2022-10-21T07:40:16.839Z,12.96
2022-10-21T07:41:17.872Z,12.93
2022-10-21T07:42:16.819Z,12.82
2022-10-21T07:43:16.819Z,12.85
2022-10-21T07:44:16.800Z,12.87
2022-10-21T07:45:16.792Z,12.90
2022-10-21T07:46:16.828Z,12.83
2022-10-21T07:47:16.784Z,12.83
2022-10-21T07:48:16.787Z,12.88
2022-10-21T07:49:16.765Z,13.03
2022-10-21T07:50:16.762Z,13.00
2022-10-21T07:51:16.784Z,13.06
2022-10-21T07:52:16.742Z,13.12
2022-10-21T07:53:17.003Z,13.13
2022-10-21T07:54:16.726Z,13.15
2022-10-21T07:55:16.726Z,13.15
2022-10-21T07:56:16.719Z,13.24
2022-10-21T07:57:16.731Z,13.27
2022-10-21T07:58:16.695Z,13.37
2022-10-21T07:59:16.691Z,13.29
2022-10-21T08:00:16.670Z,13.39
2022-10-21T08:01:16.717Z,13.29
2022-10-21T08:02:16.687Z,13.35
2022-10-21T08:03:16.650Z,13.31
2022-10-21T08:04:16.646Z,13.33
2022-10-21T08:05:16.637Z,13.49
2022-10-21T08:06:16.626Z,13.43
2022-10-21T08:07:16.646Z,13.47
2022-10-21T08:08:16.613Z,13.53
2022-10-21T08:09:16.719Z,13.60
2022-10-21T08:10:16.595Z,13.72
2022-10-21T08:11:16.593Z,13.74
2022-10-21T08:12:16.606Z,13.67
2022-10-21T08:13:16.572Z,13.80
2022-10-21T08:14:16.556Z,13.75
2022-10-21T08:15:16.557Z,13.88
2022-10-21T08:16:16.541Z,13.93
2022-10-21T08:17:16.570Z,13.97
2022-10-21T08:18:16.521Z,13.96
2022-10-21T08:19:16.518Z,13.96
2022-10-21T08:20:16.508Z,13.88
2022-10-21T08:21:16.506Z,13.93
2022-10-21T08:22:16.527Z,13.88
2022-10-21T08:23:16.490Z,13.92
2022-10-21T08:24:16.484Z,13.89
2022-10-21T08:25:16.472Z,13.83
2022-10-21T08:26:16.460Z,13.78
2022-10-21T08:27:16.479Z,13.85
2022-10-21T08:28:16.449Z,13.85
2022-10-21T08:29:16.618Z,13.95
2022-10-21T08:30:16.427Z,13.92
2022-10-21T08:31:16.430Z,13.88
2022-10-21T08:32:16.443Z,13.90
2022-10-21T08:33:16.408Z,13.95
2022-10-21T08:34:16.397Z,13.96
2022-10-21T08:35:16.387Z,13.96
2022-10-21T08:36:16.373Z,14.00
2022-10-21T08:37:16.406Z,14.00
2022-10-21T08:38:16.363Z,13.95
2022-10-21T08:39:16.348Z,13.93
2022-10-21T08:40:16.350Z,14.03
2022-10-21T08:41:16.340Z,14.07
2022-10-21T08:42:16.364Z,14.03
2022-10-21T08:43:16.322Z,13.96
2022-10-21T08:44:16.312Z,13.89
2022-10-21T08:45:16.305Z,13.90
2022-10-21T08:46:16.300Z,13.96
2022-10-21T08:47:16.326Z,14.00
2022-10-21T08:48:16.290Z,14.03
2022-10-21T08:49:16.281Z,13.97
2022-10-21T08:50:16.277Z,14.00
2022-10-21T08:51:16.260Z,14.13
2022-10-21T08:52:16.286Z,14.18
2022-10-21T08:53:16.239Z,14.07
2022-10-21T08:54:16.230Z,14.07
2022-10-21T08:55:16.218Z,14.08
2022-10-21T08:56:19.847Z,14.14
2022-10-21T08:57:17.238Z,13.96
2022-10-21T08:58:16.515Z,13.89
2022-10-21T08:59:16.201Z,13.92
2022-10-21T09:00:16.213Z,14.03
2022-10-21T09:01:16.179Z,14.05
2022-10-21T09:02:16.229Z,14.10
2022-10-21T09:03:16.252Z,13.97
2022-10-21T09:04:16.176Z,14.18
2022-10-21T09:05:16.185Z,14.19
2022-10-21T09:06:16.137Z,14.20
2022-10-21T09:07:16.202Z,14.26
2022-10-21T09:08:16.147Z,14.30
2022-10-21T09:09:16.180Z,14.32
2022-10-21T09:10:16.119Z,14.19
2022-10-21T09:11:16.110Z,14.20
2022-10-21T09:12:16.116Z,14.22
2022-10-21T09:13:16.075Z,14.15
2022-10-21T09:14:16.065Z,14.19
2022-10-21T09:15:16.056Z,14.25
2022-10-21T09:16:16.047Z,14.23
2022-10-21T09:17:16.078Z,14.37
2022-10-21T09:18:16.039Z,14.36
2022-10-21T09:19:16.028Z,14.25
2022-10-21T09:20:16.023Z,14.19
2022-10-21T09:21:16.024Z,14.30
2022-10-21T09:22:34.389Z,14.25
2022-10-21T09:23:17.993Z,14.33
2022-10-21T09:24:15.994Z,14.25
2022-10-21T09:25:15.982Z,14.29
2022-10-21T09:26:15.975Z,14.23
2022-10-21T09:27:19.416Z,14.25
2022-10-21T09:28:16.958Z,14.14
2022-10-21T09:29:15.943Z,14.14
2022-10-21T09:30:15.987Z,14.13
2022-10-21T09:31:15.939Z,14.19
2022-10-21T09:32:16.051Z,14.11
2022-10-21T09:33:15.911Z,14.10
2022-10-21T09:34:15.916Z,14.08
2022-10-21T09:35:15.902Z,14.19
2022-10-21T09:36:15.903Z,14.14
2022-10-21T09:37:15.920Z,14.23
2022-10-21T09:38:15.880Z,14.20
2022-10-21T09:39:15.869Z,14.22
2022-10-21T09:40:15.933Z,14.13
2022-10-21T09:41:15.916Z,14.22
2022-10-21T09:42:29.557Z,14.19
2022-10-21T09:43:17.871Z,14.26
2022-10-21T09:44:15.839Z,14.23
2022-10-21T09:45:15.822Z,14.20
2022-10-21T09:46:15.818Z,14.40
2022-10-21T09:47:15.812Z,14.32
2022-10-21T09:48:15.827Z,14.43
2022-10-21T09:49:47.289Z,14.44
2022-10-21T09:50:17.901Z,14.40
2022-10-21T09:51:15.771Z,14.40
2022-10-21T09:52:15.763Z,14.30
2022-10-21T09:53:15.785Z,14.40
2022-10-21T09:54:15.745Z,14.41
2022-10-21T09:55:15.740Z,14.40
2022-10-21T09:56:15.729Z,14.40
2022-10-21T09:57:15.727Z,14.45
2022-10-21T09:58:15.857Z,14.56
2022-10-21T09:59:15.931Z,14.44
2022-10-21T10:00:15.701Z,14.53
2022-10-21T10:01:15.696Z,14.43
2022-10-21T10:02:15.724Z,14.50
2022-10-21T10:03:15.695Z,14.50
2022-10-21T10:04:15.660Z,14.63
2022-10-21T10:05:15.653Z,14.68
2022-10-21T10:06:15.641Z,14.69
2022-10-21T10:07:15.634Z,14.79
2022-10-21T10:08:15.669Z,14.89
2022-10-21T10:09:15.627Z,14.87
2022-10-21T10:10:15.612Z,14.95
2022-10-21T10:11:15.615Z,14.89
2022-10-21T10:12:15.602Z,14.93
2022-10-21T10:13:15.621Z,14.95
2022-10-21T10:14:15.570Z,14.93
2022-10-21T10:15:16.579Z,14.91
2022-10-21T10:16:15.570Z,14.87
2022-10-21T10:17:15.564Z,14.87
2022-10-21T10:18:15.554Z,14.78
2022-10-21T10:19:15.577Z,14.62
2022-10-21T10:20:15.526Z,14.66
2022-10-21T10:21:15.528Z,14.61
2022-10-21T10:22:15.518Z,14.56
2022-10-21T10:23:15.510Z,14.73
2022-10-21T10:24:15.529Z,14.69
2022-10-21T10:25:15.490Z,14.74
2022-10-21T10:26:15.483Z,14.82
2022-10-21T10:27:15.482Z,14.85
2022-10-21T10:28:15.473Z,14.89
2022-10-21T10:29:15.503Z,14.91
2022-10-21T10:30:15.452Z,14.93
2022-10-21T10:31:15.444Z,14.95
2022-10-21T10:32:15.453Z,15.02
2022-10-21T10:33:15.460Z,14.89
2022-10-21T10:34:15.438Z,14.89
2022-10-21T10:35:15.415Z,15.00
2022-10-21T10:36:15.403Z,15.04
2022-10-21T10:37:15.395Z,14.99
2022-10-21T10:38:15.390Z,15.04
2022-10-21T10:39:15.406Z,14.93
2022-10-21T10:40:15.372Z,15.00
2022-10-21T10:41:15.364Z,15.15
2022-10-21T10:42:15.424Z,15.02
2022-10-21T10:43:15.348Z,15.15
2022-10-21T10:44:15.364Z,15.06
2022-10-21T10:45:15.325Z,15.06
2022-10-21T10:46:15.332Z,15.24
2022-10-21T10:47:15.320Z,15.15
2022-10-21T10:48:15.295Z,15.22
2022-10-21T10:49:15.326Z,15.25
2022-10-21T10:50:15.335Z,15.21
2022-10-21T10:51:15.287Z,15.30
2022-10-21T10:52:15.280Z,15.15
2022-10-21T10:53:15.259Z,15.15
2022-10-21T10:54:15.284Z,15.19
2022-10-21T10:55:15.245Z,15.25
2022-10-21T10:56:15.235Z,15.18
2022-10-21T10:57:15.238Z,15.17
2022-10-21T10:58:18.289Z,15.21
2022-10-21T10:59:16.233Z,15.07
2022-10-21T11:00:15.203Z,15.19
2022-10-21T11:01:15.336Z,15.21
2022-10-21T11:02:15.180Z,15.42
2022-10-21T11:03:15.178Z,15.36
2022-10-21T11:04:15.207Z,15.42
2022-10-21T11:05:15.158Z,15.46
2022-10-21T11:06:15.146Z,15.55
2022-10-21T11:07:15.144Z,15.48
2022-10-21T11:08:15.141Z,15.62
2022-10-21T11:09:15.185Z,15.60
2022-10-21T11:10:15.116Z,15.60
2022-10-21T11:11:15.108Z,15.60
2022-10-21T11:12:15.096Z,15.54
2022-10-21T11:13:15.090Z,15.48
2022-10-21T11:14:17.681Z,15.54
2022-10-21T11:15:16.085Z,15.37
2022-10-21T11:16:15.074Z,15.32
2022-10-21T11:17:15.057Z,15.32
2022-10-21T11:18:24.515Z,15.32
2022-10-21T11:19:17.070Z,15.24
2022-10-21T11:20:15.028Z,15.27
2022-10-21T11:21:15.021Z,15.36
2022-10-21T11:22:15.013Z,15.37
2022-10-21T11:23:15.014Z,15.37
2022-10-21T11:24:15.031Z,15.35
2022-10-21T11:25:14.990Z,15.43
2022-10-21T11:26:14.987Z,15.40
2022-10-21T11:27:18.225Z,15.46
2022-10-21T11:28:15.967Z,15.48
2022-10-21T11:29:15.011Z,15.50
2022-10-21T11:30:15.015Z,15.64
2022-10-21T11:31:14.946Z,15.68
2022-10-21T11:32:14.937Z,15.68
2022-10-21T11:33:14.931Z,15.62
2022-10-21T11:34:14.906Z,15.68
2022-10-21T11:35:14.937Z,15.72
2022-10-21T11:36:14.896Z,15.79
2022-10-21T11:37:14.889Z,15.79
2022-10-21T11:38:14.885Z,15.77
2022-10-21T11:39:18.203Z,16.00
2022-10-21T11:40:15.862Z,15.97
2022-10-21T11:42:14.866Z,15.98
2022-10-21T11:43:14.838Z,15.95
2022-10-21T11:44:14.915Z,15.91
2022-10-21T11:45:14.827Z,16.05
2022-10-21T11:46:14.885Z,16.08
2022-10-21T11:47:14.813Z,16.02
2022-10-21T11:48:14.800Z,15.90
2022-10-21T11:49:14.794Z,16.01
2022-10-21T11:50:14.844Z,16.01
2022-10-21T11:51:16.691Z,16.05
2022-10-21T11:52:14.769Z,16.12
2022-10-21T11:53:14.784Z,16.12
2022-10-21T11:54:14.752Z,16.24
2022-10-21T11:55:14.768Z,16.28
2022-10-21T11:56:14.736Z,16.28
2022-10-21T11:57:14.721Z,16.34
2022-10-21T11:58:14.717Z,16.24
2022-10-21T11:59:14.747Z,16.24
2022-10-21T12:00:14.732Z,16.21
2022-10-21T12:01:14.695Z,16.08
2022-10-21T12:02:14.855Z,16.13
2022-10-21T12:03:14.671Z,16.17
2022-10-21T12:04:14.677Z,16.06
2022-10-21T12:05:14.694Z,16.02
2022-10-21T12:06:14.648Z,16.00
2022-10-21T12:07:14.646Z,16.12
2022-10-21T12:08:14.716Z,16.24
2022-10-21T12:09:14.628Z,16.17
2022-10-21T12:10:14.648Z,16.17
2022-10-21T12:11:14.613Z,16.17
2022-10-21T12:12:14.603Z,16.25
2022-10-21T12:13:14.603Z,16.29
2022-10-21T12:14:14.583Z,16.39
2022-10-21T12:15:14.608Z,16.32
2022-10-21T12:16:14.596Z,16.49
2022-10-21T12:17:14.559Z,16.47
2022-10-21T12:18:14.625Z,16.49
2022-10-21T12:19:14.545Z,16.49
2022-10-21T12:20:14.570Z,16.53
2022-10-21T12:21:14.531Z,16.43
2022-10-21T12:22:14.526Z,16.38
2022-10-21T12:23:14.517Z,16.38
2022-10-21T12:24:14.501Z,16.35
2022-10-21T12:25:14.526Z,16.28
2022-10-21T12:26:14.490Z,16.28
2022-10-21T12:27:14.492Z,16.26
2022-10-21T12:28:14.483Z,16.28
2022-10-21T12:29:14.467Z,16.43
2022-10-21T12:30:14.491Z,16.31
2022-10-21T12:31:14.459Z,16.39
2022-10-21T12:32:14.451Z,16.47
2022-10-21T12:33:14.434Z,16.47
2022-10-21T12:34:14.528Z,16.57
2022-10-21T12:35:14.458Z,16.38
2022-10-21T12:36:14.413Z,16.49
2022-10-21T12:37:14.398Z,16.41
2022-10-21T12:38:14.382Z,16.50
2022-10-21T12:39:14.392Z,16.49
2022-10-21T12:40:14.408Z,16.57
2022-10-21T12:41:14.373Z,16.62
2022-10-21T12:42:14.363Z,16.61
2022-10-21T12:43:14.357Z,16.57
2022-10-21T12:44:14.340Z,16.62
2022-10-21T12:45:14.356Z,16.71
2022-10-21T12:46:14.340Z,16.79
2022-10-21T12:47:14.313Z,16.76
2022-10-21T12:48:14.307Z,16.74
2022-10-21T12:49:14.298Z,16.90
2022-10-21T12:50:14.313Z,16.96
2022-10-21T12:51:14.281Z,16.84
2022-10-21T12:52:14.278Z,16.83
2022-10-21T12:53:14.283Z,16.62
2022-10-21T12:54:14.261Z,16.51
2022-10-21T12:55:14.274Z,16.61
2022-10-21T12:56:14.284Z,16.53
2022-10-21T12:57:14.234Z,16.61
2022-10-21T12:58:14.230Z,16.71